createdAt,value
2017-04-21T00:00:15.118Z,57.81
2017-04-21T00:01:16.182Z,57.97
2017-04-21T00:02:17.161Z,58.01
2017-04-21T00:03:18.418Z,58.10
2017-04-21T00:04:19.708Z,58.03
2017-04-21T00:05:20.655Z,58.15
2017-04-21T00:06:22.121Z,58.11
2017-04-21T00:07:23.265Z,58.07
2017-04-21T00:08:24.588Z,58.06
2017-04-21T00:09:25.964Z,58.07
2017-04-21T00:10:26.991Z,57.87
2017-04-21T00:11:28.161Z,57.93
2017-04-21T00:12:29.270Z,57.74
2017-04-21T00:13:30.651Z,57.54
2017-04-21T00:14:31.936Z,57.80
2017-04-21T00:15:33.084Z,57.81
2017-04-21T00:16:34.387Z,57.82
2017-04-21T00:17:35.429Z,57.57
2017-04-21T00:18:36.549Z,57.39
2017-04-21T00:19:37.609Z,57.41
2017-04-21T00:20:38.799Z,57.19
2017-04-21T00:21:40.036Z,57.26
2017-04-21T00:22:41.194Z,57.09
2017-04-21T00:23:42.360Z,57.28
2017-04-21T00:24:43.418Z,57.33
2017-04-21T00:25:44.757Z,57.22
2017-04-21T00:26:45.976Z,57.13
2017-04-21T00:27:46.979Z,57.10
2017-04-21T00:28:48.137Z,56.80
2017-04-21T00:29:49.495Z,57.05
2017-04-21T00:30:51.220Z,56.80
2017-04-21T00:31:52.247Z,56.89
2017-04-21T00:32:53.459Z,56.96
2017-04-21T00:33:54.714Z,56.76
2017-04-21T00:34:55.978Z,56.79
2017-04-21T00:35:57.074Z,56.78
2017-04-21T00:36:58.288Z,56.73
2017-04-21T00:37:59.613Z,56.69
2017-04-21T00:39:00.702Z,56.48
2017-04-21T00:40:01.856Z,56.48
2017-04-21T00:41:03.004Z,56.47
2017-04-21T00:42:04.540Z,56.45
2017-04-21T00:43:05.706Z,56.19
2017-04-21T00:44:06.861Z,56.50
2017-04-21T00:45:08.071Z,56.61
2017-04-21T00:46:09.030Z,56.74
2017-04-21T00:47:09.956Z,56.55
2017-04-21T00:48:11.288Z,56.59
2017-04-21T00:49:13.296Z,56.53
2017-04-21T00:50:14.411Z,56.37
2017-04-21T00:51:15.479Z,56.56
2017-04-21T00:52:16.657Z,56.41
2017-04-21T00:53:17.739Z,56.49
2017-04-21T00:54:18.669Z,56.66
2017-04-21T00:55:19.623Z,56.55
2017-04-21T00:56:20.543Z,56.67
2017-04-21T00:57:21.809Z,56.51
2017-04-21T00:58:23.004Z,56.64
2017-04-21T00:59:24.330Z,56.68
2017-04-21T01:00:25.467Z,56.74
2017-04-21T01:01:26.440Z,56.83
2017-04-21T01:02:27.575Z,56.91
2017-04-21T01:03:28.633Z,56.96
2017-04-21T01:04:30.235Z,56.96
2017-04-21T01:05:31.270Z,57.04
2017-04-21T01:06:32.353Z,57.10
2017-04-21T01:07:34.188Z,57.14
2017-04-21T01:08:35.496Z,57.04
2017-04-21T01:09:36.365Z,57.03
2017-04-21T01:10:37.642Z,57.11
2017-04-21T01:11:38.777Z,57.14
2017-04-21T01:12:39.877Z,57.07
2017-04-21T01:13:41.100Z,57.23
2017-04-21T01:14:42.067Z,57.29
2017-04-21T01:15:43.308Z,57.33
2017-04-21T01:16:44.441Z,57.21
2017-04-21T01:17:45.592Z,57.37
2017-04-21T01:18:46.786Z,57.33
2017-04-21T01:19:47.967Z,57.28
2017-04-21T01:20:49.118Z,57.29
2017-04-21T01:21:50.417Z,57.34
2017-04-21T01:22:51.560Z,57.29
2017-04-21T01:23:52.908Z,57.22
2017-04-21T01:24:54.185Z,57.34
2017-04-21T01:25:55.585Z,57.28
2017-04-21T01:26:56.879Z,57.40
2017-04-21T01:27:58.302Z,57.36
2017-04-21T01:28:59.288Z,57.43
2017-04-21T01:30:00.254Z,57.37
2017-04-21T01:31:01.453Z,57.39
2017-04-21T01:32:02.481Z,57.45
2017-04-21T01:33:03.991Z,57.54
2017-04-21T01:34:05.027Z,57.67
2017-04-21T01:35:06.168Z,57.70
2017-04-21T01:36:07.354Z,57.67
2017-04-21T01:37:17.152Z,57.94
2017-04-21T01:38:19.445Z,58.05
2017-04-21T01:39:20.492Z,58.10
2017-04-21T01:40:21.741Z,58.10
2017-04-21T01:41:22.959Z,58.13
2017-04-21T01:42:23.985Z,58.04
2017-04-21T01:43:24.962Z,58.12
2017-04-21T01:44:26.143Z,58.05
2017-04-21T01:45:27.389Z,58.07
2017-04-21T01:46:28.680Z,58.03
2017-04-21T01:47:29.997Z,58.07
2017-04-21T01:48:32.437Z,58.05
2017-04-21T01:49:33.547Z,58.11
2017-04-21T01:50:34.792Z,57.97
2017-04-21T01:51:36.075Z,58.01
2017-04-21T01:52:37.025Z,58.14
2017-04-21T01:53:39.233Z,58.26
2017-04-21T01:54:40.528Z,58.35
2017-04-21T01:55:41.833Z,58.41
2017-04-21T01:56:42.755Z,58.55
2017-04-21T01:57:43.865Z,58.58
2017-04-21T01:58:45.068Z,58.54
2017-04-21T01:59:46.191Z,58.58
2017-04-21T02:00:47.309Z,58.53
2017-04-21T02:01:48.384Z,58.61
2017-04-21T02:02:49.745Z,58.64
2017-04-21T02:03:50.876Z,58.68
2017-04-21T02:04:52.001Z,58.83
2017-04-21T02:05:53.228Z,58.80
2017-04-21T02:06:54.452Z,58.90
2017-04-21T02:07:55.834Z,58.87
2017-04-21T02:08:56.946Z,58.95
2017-04-21T02:09:58.268Z,58.96
2017-04-21T02:10:59.250Z,59.08
2017-04-21T02:12:00.388Z,59.14
2017-04-21T02:13:01.704Z,59.07
2017-04-21T02:14:02.746Z,59.07
2017-04-21T02:15:03.790Z,59.08
2017-04-21T02:16:05.141Z,59.22
2017-04-21T02:17:06.417Z,59.18
2017-04-21T02:18:07.630Z,59.30
2017-04-21T02:19:08.894Z,59.42
2017-04-21T02:20:10.092Z,59.60
2017-04-21T02:21:11.436Z,59.56
2017-04-21T02:22:12.832Z,59.46
2017-04-21T02:23:14.817Z,59.49
2017-04-21T02:24:15.833Z,59.70
2017-04-21T02:25:16.981Z,59.67
2017-04-21T02:26:18.066Z,59.59
2017-04-21T02:27:19.245Z,59.69
2017-04-21T02:28:20.129Z,59.69
2017-04-21T02:29:21.295Z,59.88
2017-04-21T02:30:22.848Z,59.96
2017-04-21T02:31:23.831Z,59.90
2017-04-21T02:32:24.813Z,59.97
2017-04-21T02:33:25.938Z,60.10
2017-04-21T02:34:27.123Z,60.17
2017-04-21T02:35:28.272Z,60.05
2017-04-21T02:36:29.452Z,60.16
2017-04-21T02:37:30.639Z,60.16
2017-04-21T02:38:31.869Z,60.33
2017-04-21T02:39:33.087Z,60.36
2017-04-21T02:40:34.306Z,60.41
2017-04-21T02:41:35.355Z,60.56
2017-04-21T02:42:36.513Z,60.47
2017-04-21T02:43:37.512Z,60.59
2017-04-21T02:44:38.471Z,60.51
2017-04-21T02:45:39.787Z,60.63
2017-04-21T02:46:41.011Z,60.68
2017-04-21T02:47:42.345Z,60.63
2017-04-21T02:48:43.976Z,60.53
2017-04-21T02:49:45.179Z,60.51
2017-04-21T02:50:46.375Z,60.70
2017-04-21T02:51:47.448Z,60.91
2017-04-21T02:52:48.400Z,60.82
2017-04-21T02:53:50.201Z,60.84
2017-04-21T02:54:51.449Z,60.82
2017-04-21T02:55:52.656Z,60.89
2017-04-21T02:56:53.896Z,60.90
2017-04-21T02:57:55.205Z,61.04
2017-04-21T02:58:56.980Z,61.08
2017-04-21T02:59:58.292Z,61.34
2017-04-21T03:00:59.872Z,61.55
2017-04-21T03:02:01.015Z,61.72
2017-04-21T03:03:01.990Z,61.82
2017-04-21T03:04:02.920Z,61.97
2017-04-21T03:05:04.043Z,61.99
2017-04-21T03:06:05.511Z,61.91
2017-04-21T03:07:06.735Z,61.73
2017-04-21T03:08:08.019Z,61.69
2017-04-21T03:09:09.244Z,61.59
2017-04-21T03:10:10.588Z,61.74
2017-04-21T03:11:11.585Z,61.66
2017-04-21T03:12:12.743Z,61.77
2017-04-21T03:13:14.225Z,61.69
2017-04-21T03:14:15.611Z,61.72
2017-04-21T03:15:16.770Z,61.84
2017-04-21T03:16:17.889Z,61.88
2017-04-21T03:17:18.974Z,61.98
2017-04-21T03:18:19.993Z,61.96
2017-04-21T03:19:20.996Z,61.94
2017-04-21T03:20:22.268Z,62.05
2017-04-21T03:21:23.280Z,61.91
2017-04-21T03:22:24.440Z,62.08
2017-04-21T03:23:25.700Z,62.07
2017-04-21T03:24:26.941Z,62.15
2017-04-21T03:25:28.099Z,62.13
2017-04-21T03:26:29.579Z,62.15
2017-04-21T03:27:30.827Z,62.14
2017-04-21T03:28:32.014Z,62.41
2017-04-21T03:29:33.233Z,62.33
2017-04-21T03:30:34.575Z,62.36
2017-04-21T03:31:35.715Z,62.28
2017-04-21T03:32:36.935Z,62.36
2017-04-21T03:33:38.672Z,62.56
2017-04-21T03:34:39.960Z,62.68
2017-04-21T03:35:41.201Z,62.85
2017-04-21T03:36:42.407Z,63.02
2017-04-21T03:37:43.484Z,62.79
2017-04-21T03:38:44.689Z,62.64
2017-04-21T03:39:45.990Z,62.62
2017-04-21T03:40:47.144Z,62.34
2017-04-21T03:41:48.140Z,62.50
2017-04-21T03:42:49.809Z,62.45
2017-04-21T03:43:51.302Z,62.34
2017-04-21T03:44:52.442Z,62.37
2017-04-21T03:45:53.724Z,62.39
2017-04-21T03:46:54.963Z,62.32
2017-04-21T03:47:56.529Z,62.35
2017-04-21T03:48:57.853Z,62.35
2017-04-21T03:49:59.009Z,62.46
2017-04-21T03:51:00.227Z,62.48
2017-04-21T03:52:01.908Z,62.35
2017-04-21T03:53:03.926Z,62.66
2017-04-21T03:54:05.156Z,62.85
2017-04-21T03:55:06.315Z,62.73
2017-04-21T03:56:07.666Z,62.65
2017-04-21T03:57:09.019Z,62.69
2017-04-21T03:58:10.283Z,62.65
2017-04-21T03:59:11.816Z,62.92
2017-04-21T04:00:13.172Z,62.79
2017-04-21T04:01:14.855Z,62.97
2017-04-21T04:02:16.051Z,62.94
2017-04-21T04:03:17.216Z,63.23
2017-04-21T04:04:18.508Z,63.21
2017-04-21T04:05:19.667Z,63.24
2017-04-21T04:06:20.782Z,63.23
2017-04-21T04:07:21.950Z,62.90
2017-04-21T04:08:23.176Z,62.91
2017-04-21T04:09:24.448Z,62.72
2017-04-21T04:10:25.708Z,62.68
2017-04-21T04:11:26.735Z,62.55
2017-04-21T04:12:27.970Z,62.55
2017-04-21T04:13:29.568Z,62.80
2017-04-21T04:14:30.645Z,62.86
2017-04-21T04:15:31.833Z,62.67
2017-04-21T04:16:32.925Z,62.94
2017-04-21T04:17:33.882Z,63.26
2017-04-21T04:18:34.925Z,63.41
2017-04-21T04:19:36.152Z,63.60
2017-04-21T04:20:37.232Z,63.92
2017-04-21T04:21:38.405Z,63.62
2017-04-21T04:22:39.889Z,63.45
2017-04-21T04:23:41.160Z,63.22
2017-04-21T04:24:42.377Z,63.41
2017-04-21T04:25:43.812Z,63.45
2017-04-21T04:26:45.012Z,63.60
2017-04-21T04:27:46.308Z,63.75
2017-04-21T04:28:52.365Z,63.53
2017-04-21T04:29:57.129Z,63.43
2017-04-21T04:31:01.687Z,63.44
2017-04-21T04:32:06.137Z,63.30
2017-04-21T04:33:10.397Z,63.07
2017-04-21T04:34:11.806Z,63.12
2017-04-21T04:35:13.039Z,63.32
2017-04-21T04:36:14.260Z,63.26
2017-04-21T04:37:15.448Z,63.22
2017-04-21T04:38:16.667Z,63.05
2017-04-21T04:39:17.930Z,63.01
2017-04-21T04:40:19.105Z,62.86
2017-04-21T04:41:20.471Z,62.90
2017-04-21T04:42:22.652Z,62.96
2017-04-21T04:43:25.700Z,62.84
2017-04-21T04:44:32.589Z,62.76
2017-04-21T04:45:36.428Z,62.69
2017-04-21T04:46:39.820Z,62.77
2017-04-21T04:47:41.903Z,62.86
2017-04-21T04:48:44.901Z,62.81
2017-04-21T04:49:46.183Z,62.81
2017-04-21T04:50:47.271Z,62.96
2017-04-21T04:51:48.423Z,62.87
2017-04-21T04:52:49.941Z,62.89
2017-04-21T04:53:51.415Z,62.71
2017-04-21T04:54:52.774Z,62.67
2017-04-21T04:55:54.743Z,62.65
2017-04-21T04:56:56.834Z,62.68
2017-04-21T04:57:58.489Z,62.86
2017-04-21T04:58:59.714Z,62.89
2017-04-21T05:00:01.092Z,62.77
2017-04-21T05:01:03.558Z,62.75
2017-04-21T05:02:04.663Z,62.62
2017-04-21T05:03:05.780Z,62.41
2017-04-21T05:04:06.916Z,62.46
2017-04-21T05:05:07.970Z,62.21
2017-04-21T05:06:09.103Z,62.15
2017-04-21T05:07:10.364Z,62.10
2017-04-21T05:08:11.625Z,62.10
2017-04-21T05:09:13.120Z,62.13
2017-04-21T05:10:14.380Z,62.16
2017-04-21T05:11:15.690Z,62.24
2017-04-21T05:12:16.821Z,62.34
2017-04-21T05:13:18.013Z,62.42
2017-04-21T05:14:19.252Z,62.43
2017-04-21T05:15:20.544Z,62.48
2017-04-21T05:16:21.888Z,62.53
2017-04-21T05:17:22.974Z,62.56
2017-04-21T05:18:23.967Z,62.50
2017-04-21T05:19:25.154Z,62.49
2017-04-21T05:20:26.467Z,62.47
2017-04-21T05:21:28.091Z,62.36
2017-04-21T05:22:29.300Z,62.26
2017-04-21T05:23:30.542Z,62.13
2017-04-21T05:24:31.755Z,62.23
2017-04-21T05:25:32.847Z,62.23
2017-04-21T05:26:34.066Z,62.28
2017-04-21T05:27:35.014Z,61.95
2017-04-21T05:28:36.240Z,61.98
2017-04-21T05:29:37.611Z,61.99
2017-04-21T05:30:40.234Z,61.92
2017-04-21T05:31:41.167Z,61.86
2017-04-21T05:32:42.377Z,61.93
2017-04-21T05:33:43.614Z,61.91
2017-04-21T05:34:44.855Z,61.95
2017-04-21T05:35:58.879Z,61.82
2017-04-21T05:37:04.397Z,61.68
2017-04-21T05:38:11.483Z,61.67
2017-04-21T05:39:14.216Z,61.71
2017-04-21T05:40:15.308Z,61.85
2017-04-21T05:41:16.675Z,61.75
2017-04-21T05:42:18.011Z,61.73
2017-04-21T05:43:19.301Z,61.79
2017-04-21T05:44:20.381Z,61.89
2017-04-21T05:45:21.880Z,61.95
2017-04-21T05:46:23.731Z,61.90
2017-04-21T05:47:24.893Z,61.77
2017-04-21T05:48:26.219Z,61.78
2017-04-21T05:49:27.376Z,61.71
2017-04-21T05:50:29.401Z,61.55
2017-04-21T05:51:32.613Z,61.46
2017-04-21T05:52:38.873Z,61.27
2017-04-21T05:53:43.241Z,60.94
2017-04-21T05:54:44.882Z,60.77
2017-04-21T05:55:45.972Z,60.67
2017-04-21T05:56:47.692Z,60.63
2017-04-21T05:57:53.035Z,60.68
2017-04-21T05:59:00.539Z,60.50
2017-04-21T06:00:07.473Z,60.13
2017-04-21T06:01:08.528Z,59.00
2017-04-21T06:02:09.527Z,58.73
2017-04-21T06:03:10.644Z,59.12
2017-04-21T06:04:11.763Z,59.01
2017-04-21T06:05:12.892Z,58.74
2017-04-21T06:06:14.026Z,58.83
2017-04-21T06:07:15.171Z,58.63
2017-04-21T06:08:16.338Z,58.36
2017-04-21T06:09:17.428Z,58.51
2017-04-21T06:10:18.530Z,58.24
2017-04-21T06:11:19.632Z,58.31
2017-04-21T06:12:20.738Z,58.08
2017-04-21T06:13:21.944Z,58.37
2017-04-21T06:14:23.165Z,58.38
2017-04-21T06:15:24.335Z,58.33
2017-04-21T06:16:25.452Z,58.26
2017-04-21T06:17:26.650Z,58.27
2017-04-21T06:18:28.204Z,58.26
2017-04-21T06:19:29.297Z,58.23
2017-04-21T06:20:30.814Z,58.24
2017-04-21T06:21:31.785Z,58.11
2017-04-21T06:22:33.461Z,58.13
2017-04-21T06:23:34.802Z,58.14
2017-04-21T06:24:35.916Z,59.10
2017-04-21T06:25:37.031Z,59.08
2017-04-21T06:26:37.963Z,58.66
2017-04-21T06:27:38.887Z,58.32
2017-04-21T06:28:40.032Z,58.33
2017-04-21T06:29:41.160Z,58.32
2017-04-21T06:30:42.292Z,58.28
2017-04-21T06:31:43.424Z,58.22
2017-04-21T06:32:44.587Z,58.14
2017-04-21T06:33:45.755Z,58.11
2017-04-21T06:34:46.843Z,58.03
2017-04-21T06:35:47.923Z,58.25
2017-04-21T06:36:49.070Z,58.14
2017-04-21T06:37:50.242Z,58.01
2017-04-21T06:38:51.249Z,58.05
2017-04-21T06:39:52.422Z,58.00
2017-04-21T06:40:53.554Z,57.91
2017-04-21T06:41:55.066Z,57.86
2017-04-21T06:42:56.631Z,58.01
2017-04-21T06:43:58.057Z,58.03
2017-04-21T06:44:59.454Z,57.89
2017-04-21T06:46:00.357Z,57.76
2017-04-21T06:47:01.277Z,57.76
2017-04-21T06:48:02.491Z,57.84
2017-04-21T06:49:03.580Z,57.58
2017-04-21T06:50:04.741Z,57.60
2017-04-21T06:51:05.871Z,57.67
2017-04-21T06:52:07.022Z,57.94
2017-04-21T06:53:08.175Z,57.91
2017-04-21T06:54:09.292Z,57.92
2017-04-21T06:55:10.776Z,57.84
2017-04-21T06:56:11.728Z,58.03
2017-04-21T06:57:13.200Z,58.04
2017-04-21T06:58:14.400Z,57.96
2017-04-21T06:59:15.513Z,57.80
2017-04-21T07:00:16.633Z,57.41
2017-04-21T07:01:17.725Z,57.37
2017-04-21T07:02:18.964Z,57.41
2017-04-21T07:03:19.997Z,57.77
2017-04-21T07:04:21.178Z,57.96
2017-04-21T07:05:22.320Z,57.87
2017-04-21T07:06:23.336Z,57.41
2017-04-21T07:07:24.461Z,57.38
2017-04-21T07:08:25.544Z,57.50
2017-04-21T07:09:26.708Z,57.67
2017-04-21T07:10:27.803Z,57.50
2017-04-21T07:11:28.905Z,57.54
2017-04-21T07:12:29.989Z,57.58
2017-04-21T07:13:31.086Z,57.52
2017-04-21T07:14:32.527Z,57.46
2017-04-21T07:15:33.633Z,57.38
2017-04-21T07:16:34.723Z,56.81
2017-04-21T07:17:35.830Z,56.81
2017-04-21T07:18:36.971Z,56.89
2017-04-21T07:19:38.094Z,56.63
2017-04-21T07:20:39.257Z,56.37
2017-04-21T07:21:40.443Z,56.52
2017-04-21T07:22:41.384Z,56.49
2017-04-21T07:23:42.527Z,56.40
2017-04-21T07:24:43.610Z,56.09
2017-04-21T07:25:44.791Z,55.99
2017-04-21T07:26:45.716Z,55.73
2017-04-21T07:27:46.853Z,55.67
2017-04-21T07:28:47.971Z,55.79
2017-04-21T07:29:49.356Z,55.48
2017-04-21T07:30:50.518Z,55.18
2017-04-21T07:31:51.729Z,54.89
2017-04-21T07:32:52.907Z,54.76
2017-04-21T07:33:54.025Z,54.43
2017-04-21T07:34:55.113Z,54.42
2017-04-21T07:36:57.635Z,54.56
2017-04-21T07:37:58.827Z,54.21
2017-04-21T07:38:59.756Z,53.89
2017-04-21T07:40:00.840Z,54.08
2017-04-21T07:41:01.805Z,53.86
2017-04-21T07:42:02.910Z,53.82
2017-04-21T07:43:03.943Z,53.11
2017-04-21T07:44:05.065Z,53.32
2017-04-21T07:45:06.620Z,53.12
2017-04-21T07:46:07.628Z,53.01
2017-04-21T07:47:08.828Z,53.07
2017-04-21T07:48:09.966Z,53.19
2017-04-21T07:49:11.056Z,53.31
2017-04-21T07:50:12.211Z,53.28
2017-04-21T07:51:13.396Z,53.04
2017-04-21T07:52:14.545Z,53.08
2017-04-21T07:53:15.726Z,53.24
2017-04-21T07:54:16.846Z,53.08
2017-04-21T07:55:17.817Z,52.70
2017-04-21T07:56:18.995Z,52.76
2017-04-21T07:57:20.089Z,52.51
2017-04-21T07:58:21.255Z,52.47
2017-04-21T07:59:22.376Z,52.85
2017-04-21T08:00:23.685Z,52.75
2017-04-21T08:01:24.780Z,52.15
2017-04-21T08:02:25.908Z,51.93
2017-04-21T08:03:27.081Z,52.01
2017-04-21T08:04:28.187Z,52.14
2017-04-21T08:05:29.343Z,51.77
2017-04-21T08:06:30.451Z,51.75
2017-04-21T08:07:31.587Z,51.49
2017-04-21T08:08:32.737Z,51.34
2017-04-21T08:09:33.844Z,51.44
2017-04-21T08:10:35.012Z,51.17
2017-04-21T08:11:36.108Z,51.46
2017-04-21T08:12:37.226Z,51.22
2017-04-21T08:13:38.407Z,51.02
2017-04-21T08:14:39.509Z,50.98
2017-04-21T08:15:40.627Z,50.62
2017-04-21T08:16:41.810Z,50.60
2017-04-21T08:17:42.958Z,50.91
2017-04-21T08:18:44.178Z,51.20
2017-04-21T08:19:45.340Z,51.46
2017-04-21T08:20:46.388Z,51.36
2017-04-21T08:21:47.550Z,51.06
2017-04-21T08:22:48.730Z,51.19
2017-04-21T08:23:49.977Z,51.18
2017-04-21T08:24:51.215Z,51.29
2017-04-21T08:25:52.373Z,51.38
2017-04-21T08:26:53.525Z,51.97
2017-04-21T08:27:54.667Z,50.99
2017-04-21T08:28:56.381Z,51.20
2017-04-21T08:29:58.330Z,50.93
2017-04-21T08:30:59.485Z,50.89
2017-04-21T08:32:01.008Z,51.24
2017-04-21T08:33:02.136Z,51.29
2017-04-21T08:34:03.425Z,50.82
2017-04-21T08:35:04.607Z,51.16
2017-04-21T08:36:06.143Z,51.20
2017-04-21T08:37:07.229Z,51.50
2017-04-21T08:38:08.180Z,51.77
2017-04-21T08:39:09.376Z,52.08
2017-04-21T08:40:10.675Z,52.24
2017-04-21T08:41:11.819Z,51.30
2017-04-21T08:42:12.760Z,50.71
2017-04-21T08:43:13.878Z,50.95
2017-04-21T08:44:15.045Z,50.59
2017-04-21T08:45:16.288Z,50.52
2017-04-21T08:46:17.482Z,50.26
2017-04-21T08:47:18.665Z,50.23
2017-04-21T08:48:19.801Z,50.26
2017-04-21T08:49:20.928Z,50.28
2017-04-21T08:50:22.149Z,49.87
2017-04-21T08:51:23.735Z,50.12
2017-04-21T08:52:24.867Z,50.06
2017-04-21T08:53:26.003Z,50.07
2017-04-21T08:54:27.589Z,50.37
2017-04-21T08:55:28.831Z,50.18
2017-04-21T08:56:29.911Z,50.40
2017-04-21T08:57:30.945Z,50.55
2017-04-21T08:58:32.098Z,49.86
2017-04-21T08:59:33.232Z,49.93
2017-04-21T09:00:34.495Z,50.38
2017-04-21T09:01:35.645Z,50.22
2017-04-21T09:02:36.572Z,49.79
2017-04-21T09:03:37.712Z,50.27
2017-04-21T09:04:38.828Z,50.13
2017-04-21T09:05:40.063Z,50.03
2017-04-21T09:06:41.301Z,49.82
2017-04-21T09:07:42.475Z,50.10
2017-04-21T09:08:43.431Z,49.88
2017-04-21T09:09:44.582Z,50.04
2017-04-21T09:10:45.767Z,49.98
2017-04-21T09:11:46.945Z,49.49
2017-04-21T09:12:48.100Z,49.67
2017-04-21T09:13:49.291Z,49.42
2017-04-21T09:14:50.589Z,49.48
2017-04-21T09:15:51.749Z,49.43
2017-04-21T09:16:52.853Z,49.53
2017-04-21T09:17:54.088Z,49.32
2017-04-21T09:18:55.290Z,49.74
2017-04-21T09:19:56.520Z,49.77
2017-04-21T09:20:57.816Z,49.28
2017-04-21T09:21:59.028Z,49.11
2017-04-21T09:23:00.197Z,49.45
2017-04-21T09:24:01.345Z,49.47
2017-04-21T09:25:02.312Z,49.77
2017-04-21T09:26:03.600Z,49.64
2017-04-21T09:27:04.703Z,49.46
2017-04-21T09:28:05.883Z,49.52
2017-04-21T09:29:06.968Z,49.52
2017-04-21T09:30:08.477Z,48.98
2017-04-21T09:32:04.257Z,48.73
2017-04-21T09:32:11.223Z,49.28
2017-04-21T09:33:12.414Z,49.10
2017-04-21T09:34:33.408Z,49.08
2017-04-21T09:35:14.569Z,49.57
2017-04-21T09:36:15.717Z,49.37
2017-04-21T09:37:17.249Z,49.68
2017-04-21T09:38:18.403Z,49.39
2017-04-21T09:39:19.576Z,49.36
2017-04-21T09:40:20.717Z,49.13
2017-04-21T09:41:21.825Z,49.21
2017-04-21T09:42:22.968Z,48.83
2017-04-21T09:43:23.937Z,48.43
2017-04-21T09:44:24.899Z,48.62
2017-04-21T09:45:26.001Z,48.82
2017-04-21T09:46:27.099Z,48.94
2017-04-21T09:47:28.221Z,49.11
2017-04-21T09:48:29.360Z,49.23
2017-04-21T09:49:30.564Z,49.01
2017-04-21T09:50:32.138Z,48.99
2017-04-21T09:51:33.362Z,48.67
2017-04-21T09:52:34.628Z,48.91
2017-04-21T09:54:14.224Z,49.44
2017-04-21T09:56:05.055Z,49.04
2017-04-21T09:59:18.162Z,49.37
2017-04-21T09:59:48.182Z,50.35
2017-04-21T09:59:59.154Z,49.54
2017-04-21T10:00:06.710Z,48.99
2017-04-21T10:04:31.647Z,49.41
2017-04-21T10:05:05.337Z,47.53
2017-04-21T10:05:50.878Z,48.75
2017-04-21T10:07:09.583Z,48.88
2017-04-21T10:07:13.296Z,48.23
2017-04-21T10:07:27.537Z,47.82
2017-04-21T10:07:53.171Z,49.04
2017-04-21T10:07:56.539Z,48.31
2017-04-21T10:07:56.696Z,48.83
2017-04-21T10:08:54.326Z,49.42
2017-04-21T10:09:55.461Z,48.28
2017-04-21T10:10:56.825Z,48.14
2017-04-21T10:11:58.209Z,48.31
2017-04-21T10:12:59.362Z,47.98
2017-04-21T10:14:00.504Z,48.07
2017-04-21T10:15:01.639Z,48.53
2017-04-21T10:16:02.937Z,48.48
2017-04-21T10:17:03.939Z,48.73
2017-04-21T10:18:05.125Z,48.67
2017-04-21T10:19:06.269Z,48.67
2017-04-21T10:20:07.403Z,48.46
2017-04-21T10:21:08.586Z,48.73
2017-04-21T10:22:10.136Z,48.49
2017-04-21T10:23:11.255Z,48.75
2017-04-21T10:24:12.353Z,48.68
2017-04-21T10:25:13.326Z,48.67
2017-04-21T10:26:14.441Z,48.75
2017-04-21T10:27:15.835Z,48.16
2017-04-21T10:28:17.008Z,48.47
2017-04-21T10:29:18.025Z,48.57
2017-04-21T10:30:19.221Z,48.71
2017-04-21T10:31:20.351Z,48.70
2017-04-21T10:32:21.574Z,48.37
2017-04-21T10:33:22.797Z,48.27
2017-04-21T10:34:23.916Z,48.20
2017-04-21T10:35:25.014Z,47.88
2017-04-21T10:36:26.252Z,47.55
2017-04-21T10:37:27.406Z,47.42
2017-04-21T10:38:28.653Z,47.58
2017-04-21T10:39:29.762Z,47.40
2017-04-21T10:40:31.053Z,47.66
2017-04-21T10:41:32.170Z,47.12
2017-04-21T10:42:33.409Z,47.21
2017-04-21T10:43:34.629Z,47.25
2017-04-21T10:44:35.830Z,47.82
2017-04-21T10:45:36.971Z,47.55
2017-04-21T10:46:38.001Z,47.12
2017-04-21T10:47:39.203Z,47.42
2017-04-21T10:48:40.523Z,47.60
2017-04-21T10:49:41.682Z,47.78
2017-04-21T10:50:42.844Z,47.47
2017-04-21T10:51:43.998Z,47.35
2017-04-21T10:52:45.152Z,47.42
2017-04-21T10:53:46.395Z,47.60
2017-04-21T10:54:47.529Z,46.93
2017-04-21T10:55:48.707Z,46.82
2017-04-21T10:56:49.941Z,47.38
2017-04-21T10:57:51.147Z,47.19
2017-04-21T10:58:52.507Z,46.70
2017-04-21T10:59:53.639Z,46.85
2017-04-21T11:00:54.838Z,46.97
2017-04-21T11:01:56.175Z,46.50
2017-04-21T11:02:57.727Z,46.27
2017-04-21T11:03:59.007Z,46.68
2017-04-21T11:05:00.132Z,46.69
2017-04-21T11:06:01.406Z,46.57
2017-04-21T11:07:02.589Z,46.99
2017-04-21T11:08:03.725Z,47.32
2017-04-21T11:09:05.369Z,47.09
2017-04-21T11:10:06.757Z,47.25
2017-04-21T11:11:07.919Z,47.33
2017-04-21T11:12:09.014Z,47.50
2017-04-21T11:13:09.940Z,47.30
2017-04-21T11:14:11.159Z,47.40
2017-04-21T11:15:12.288Z,47.35
2017-04-21T11:16:13.416Z,47.28
2017-04-21T11:17:14.570Z,46.79
2017-04-21T11:18:15.758Z,47.19
2017-04-21T11:19:16.954Z,47.95
2017-04-21T11:20:18.169Z,47.16
2017-04-21T11:21:19.373Z,47.16
2017-04-21T11:22:20.362Z,47.56
2017-04-21T11:23:21.947Z,47.31
2017-04-21T11:24:23.135Z,47.29
2017-04-21T11:25:24.649Z,47.41
2017-04-21T11:26:25.751Z,47.56
2017-04-21T11:27:26.883Z,47.89
2017-04-21T11:28:28.031Z,47.63
2017-04-21T11:29:29.303Z,47.29
2017-04-21T11:30:30.973Z,47.51
2017-04-21T11:31:32.091Z,47.60
2017-04-21T11:32:33.224Z,47.54
2017-04-21T11:33:34.603Z,47.36
2017-04-21T11:34:35.809Z,46.87
2017-04-21T11:35:37.019Z,46.40
2017-04-21T11:36:38.155Z,46.29
2017-04-21T11:37:39.316Z,46.13
2017-04-21T11:38:40.439Z,46.28
2017-04-21T11:39:41.600Z,46.50
2017-04-21T11:40:43.104Z,46.67
2017-04-21T11:41:44.087Z,46.96
2017-04-21T11:42:45.248Z,47.20
2017-04-21T11:43:46.375Z,47.22
2017-04-21T11:44:47.533Z,47.55
2017-04-21T11:45:48.724Z,47.44
2017-04-21T11:46:49.870Z,47.47
2017-04-21T11:47:51.075Z,48.13
2017-04-21T11:48:52.307Z,48.27
2017-04-21T11:49:53.827Z,48.48
2017-04-21T11:50:55.008Z,48.76
2017-04-21T11:51:56.332Z,48.51
2017-04-21T11:52:57.586Z,48.75
2017-04-21T11:53:58.755Z,48.75
2017-04-21T11:54:59.954Z,48.58
2017-04-21T11:56:01.137Z,48.47
2017-04-21T11:57:02.120Z,48.24
2017-04-21T11:58:03.379Z,48.25
2017-04-21T11:59:04.631Z,48.39
2017-04-21T12:00:05.804Z,48.48
2017-04-21T12:01:06.765Z,48.50
2017-04-21T12:02:07.880Z,48.16
2017-04-21T12:03:09.032Z,48.07
2017-04-21T12:04:10.202Z,47.98
2017-04-21T12:05:11.384Z,48.31
2017-04-21T12:06:12.438Z,48.61
2017-04-21T12:07:13.554Z,48.22
2017-04-21T12:08:14.860Z,47.80
2017-04-21T12:09:16.005Z,48.01
2017-04-21T12:10:17.214Z,47.90
2017-04-21T12:11:18.444Z,47.46
2017-04-21T12:12:19.576Z,48.17
2017-04-21T12:13:20.739Z,48.01
2017-04-21T12:14:21.977Z,48.08
2017-04-21T12:15:23.076Z,47.65
2017-04-21T12:16:24.239Z,47.16
2017-04-21T12:17:25.391Z,47.11
2017-04-21T12:18:26.672Z,46.73
2017-04-21T12:19:27.993Z,46.64
2017-04-21T12:20:29.519Z,46.94
2017-04-21T12:21:31.043Z,47.19
2017-04-21T12:22:32.305Z,46.59
2017-04-21T12:23:33.658Z,46.69
2017-04-21T12:24:34.963Z,47.06
2017-04-21T12:25:36.201Z,47.49
2017-04-21T12:26:37.370Z,47.30
2017-04-21T12:27:38.583Z,47.32
2017-04-21T12:28:39.790Z,46.96
2017-04-21T12:29:41.073Z,47.50
2017-04-21T12:30:42.533Z,47.82
2017-04-21T12:31:43.667Z,47.82
2017-04-21T12:32:44.971Z,48.09
2017-04-21T12:33:46.283Z,48.33
2017-04-21T12:34:47.716Z,48.84
2017-04-21T12:35:48.956Z,48.72
2017-04-21T12:36:50.279Z,49.36
2017-04-21T12:37:51.736Z,49.48
2017-04-21T12:38:53.117Z,49.40
2017-04-21T12:39:54.420Z,49.68
2017-04-21T12:40:55.855Z,49.56
2017-04-21T12:41:57.227Z,49.88
2017-04-21T12:42:58.448Z,50.17
2017-04-21T12:43:59.795Z,50.21
2017-04-21T12:45:01.029Z,50.49
2017-04-21T12:46:02.401Z,50.75
2017-04-21T12:47:03.669Z,50.83
2017-04-21T12:48:04.986Z,50.75
2017-04-21T12:49:06.316Z,50.91
2017-04-21T12:50:07.384Z,51.24
2017-04-21T12:51:08.527Z,51.14
2017-04-21T12:52:09.841Z,50.76
2017-04-21T12:53:11.293Z,50.82
2017-04-21T12:54:12.593Z,51.10
2017-04-21T12:55:13.920Z,51.37
2017-04-21T12:56:15.202Z,51.13
2017-04-21T12:57:16.428Z,51.00
2017-04-21T12:58:17.953Z,51.29
2017-04-21T12:59:19.440Z,51.39
2017-04-21T13:00:20.902Z,51.72
2017-04-21T13:01:22.109Z,51.91
2017-04-21T13:02:23.547Z,51.93
2017-04-21T13:03:24.931Z,52.15
2017-04-21T13:04:26.188Z,52.09
2017-04-21T13:05:27.535Z,52.00
2017-04-21T13:06:28.711Z,52.23
2017-04-21T13:07:30.268Z,52.41
2017-04-21T13:08:31.417Z,52.08
2017-04-21T13:09:32.876Z,51.84
2017-04-21T13:10:34.111Z,52.10